Time;durP1;ratioP1;P1;durP2;ratioP2;P2;SDS_P1;SDS_P2;PMS_P1;PMS_P2;Temp;Humidity;BMP_temperature;BMP_pressure;BME280_temperature;BME280_humidity;BME280_pressure;Samples;Min_cycle;Max_cycle;Signal;HPM_P1;HPM_P2
2023/10/18 00:02:22;;;;;;;39.73;18.90;;;;;;;5.45;70.15;101138.15;124718;1105;101883;-80
2023/10/18 00:04:53;;;;;;;34.87;19.33;;;;;;;5.34;69.70;101143.53;124913;1106;104256;-79
2023/10/18 00:07:25;;;;;;;36.17;19.00;;;;;;;5.24;69.74;101130.72;124668;1105;104201;-79
2023/10/18 00:09:57;;;;;;;37.07;20.70;;;;;;;5.18;69.98;101131.20;124681;1105;104251;-80
2023/10/18 00:12:28;;;;;;;39.50;20.40;;;;;;;5.15;69.56;101127.50;124689;1105;102233;-80
2023/10/18 00:15:00;;;;;;;38.97;20.30;;;;;;;5.09;70.25;101124.48;124764;1105;104188;-80
2023/10/18 00:17:31;;;;;;;36.97;20.60;;;;;;;4.99;70.10;101126.45;124706;1105;102360;-81
2023/10/18 00:20:08;;;;;;;38.03;20.83;;;;;;;4.96;69.86;101125.36;124748;1105;104243;-79
2023/10/18 00:22:40;;;;;;;38.57;20.00;;;;;;;4.89;70.10;101125.72;125485;1105;104237;-81
2023/10/18 00:25:11;;;;;;;37.80;20.70;;;;;;;4.79;70.44;101122.48;125781;1104;102229;-81
2023/10/18 00:27:43;;;;;;;36.93;19.33;;;;;;;4.75;69.89;101123.06;124697;1105;104176;-80
2023/10/18 00:30:18;;;;;;;40.63;21.20;;;;;;;4.74;70.40;101122.99;124593;1102;104237;-81
2023/10/18 00:32:49;;;;;;;39.70;20.53;;;;;;;4.76;70.50;101116.19;125192;1102;104236;-80
2023/10/18 00:35:23;;;;;;;35.90;19.87;;;;;;;4.72;70.03;101109.89;124655;1102;101918;-80
2023/10/18 00:37:54;;;;;;;39.00;19.00;;;;;;;4.71;70.21;101117.58;124751;1102;104179;-80
2023/10/18 00:40:36;;;;;;;40.90;20.37;;;;;;;4.77;70.81;101117.97;124729;1102;101922;-80
2023/10/18 00:43:14;;;;;;;36.37;19.97;;;;;;;4.82;70.53;101119.21;124661;1105;104258;-80
2023/10/18 00:45:47;;;;;;;38.50;19.80;;;;;;;4.86;70.25;101109.13;124610;1105;102192;-80
2023/10/18 00:48:23;;;;;;;34.88;18.50;;;;;;;4.84;70.97;101102.89;124777;1103;102016;-80
2023/10/18 00:50:56;;;;;;;35.83;18.37;;;;;;;4.82;70.99;101112.30;124562;1102;104179;-80
2023/10/18 00:53:30;;;;;;;35.40;18.62;;;;;;;4.77;71.15;101099.77;124632;1105;104182;-80
2023/10/18 00:56:04;;;;;;;35.80;18.90;;;;;;;4.75;70.96;101101.37;124618;1102;101919;-80
2023/10/18 00:58:39;;;;;;;34.93;18.93;;;;;;;4.74;70.78;101103.08;124765;1102;102068;-80
2023/10/18 01:01:11;;;;;;;33.03;18.07;;;;;;;4.76;71.05;101096.28;124607;1102;104252;-80
2023/10/18 01:03:46;;;;;;;33.83;18.47;;;;;;;4.79;71.16;101093.00;124772;1105;102093;-80
2023/10/18 01:06:21;;;;;;;35.50;18.30;;;;;;;4.83;71.58;101084.59;124812;1105;101772;-80
2023/10/18 01:08:55;;;;;;;32.10;17.50;;;;;;;4.88;71.36;101092.70;124615;1105;104182;-81
2023/10/18 01:11:28;;;;;;;33.27;16.80;;;;;;;4.90;71.48;101085.93;124726;1102;102217;-80
2023/10/18 01:14:00;;;;;;;32.23;17.80;;;;;;;4.92;71.10;101081.72;124675;1102;104329;-81
2023/10/18 01:16:35;;;;;;;32.63;17.73;;;;;;;4.89;71.04;101084.11;124721;1102;104185;-80
2023/10/18 01:19:08;;;;;;;34.30;17.77;;;;;;;4.84;71.72;101074.29;124683;1102;104180;-81
2023/10/18 01:21:42;;;;;;;38.35;18.50;;;;;;;4.85;71.16;101075.22;124779;1102;104303;-81
2023/10/18 01:24:18;;;;;;;36.50;19.73;;;;;;;4.83;71.21;101072.51;124722;1105;104188;-80
2023/10/18 01:26:49;;;;;;;34.60;18.90;;;;;;;4.80;71.67;101074.90;124633;1105;101924;-81
2023/10/18 01:29:22;;;;;;;34.97;18.43;;;;;;;4.76;71.96;101078.08;124681;1105;104348;-82
2023/10/18 01:31:54;;;;;;;35.93;18.37;;;;;;;4.75;71.89;101072.77;124722;1102;104172;-81
2023/10/18 01:34:26;;;;;;;37.63;19.40;;;;;;;4.72;71.37;101075.16;124770;1102;101919;-81
2023/10/18 01:36:57;;;;;;;34.90;19.23;;;;;;;4.71;71.99;101076.88;124858;1102;104182;-81
2023/10/18 01:39:30;;;;;;;35.33;18.93;;;;;;;4.72;71.49;101078.69;124693;1102;104175;-80
2023/10/18 01:42:02;;;;;;;38.07;19.70;;;;;;;4.75;71.51;101070.17;124694;1102;102025;-81
2023/10/18 01:44:33;;;;;;;38.83;19.80;;;;;;;4.76;71.82;101077.19;125773;1103;104185;-81
2023/10/18 01:47:07;;;;;;;35.03;19.20;;;;;;;4.71;71.91;101071.67;124693;1105;102358;-81
2023/10/18 01:49:43;;;;;;;36.53;20.27;;;;;;;4.71;71.60;101074.27;124746;1105;101796;-81
2023/10/18 01:52:18;;;;;;;34.67;20.00;;;;;;;4.67;71.92;101077.45;124739;1102;104185;-82
2023/10/18 01:54:52;;;;;;;37.63;20.93;;;;;;;4.60;72.23;101070.05;124705;1102;104210;-81
2023/10/18 01:57:24;;;;;;;39.10;21.83;;;;;;;4.54;72.13;101069.62;124707;1102;104182;-81
2023/10/18 01:59:56;;;;;;;37.20;21.17;;;;;;;4.48;72.15;101072.69;124732;1102;104236;-82
2023/10/18 02:02:27;;;;;;;40.97;20.47;;;;;;;4.44;72.49;101070.66;124636;1104;102868;-81
2023/10/18 02:05:03;;;;;;;39.47;22.60;;;;;;;4.44;71.86;101073.25;126160;1101;101961;-81
2023/10/18 02:07:36;;;;;;;38.87;21.30;;;;;;;4.42;72.14;101074.86;124781;1102;104274;-81
2023/10/18 02:10:11;;;;;;;38.07;21.73;;;;;;;4.38;71.98;101075.42;124925;1101;104248;-81
2023/10/18 02:12:44;;;;;;;37.67;20.53;;;;;;;4.35;72.12;101078.73;124822;1102;104366;-81
2023/10/18 02:15:15;;;;;;;39.97;21.43;;;;;;;4.31;72.41;101080.19;125436;1102;101832;-80
2023/10/18 02:17:51;;;;;;;42.20;21.27;;;;;;;4.32;72.65;101076.81;124896;1102;104283;-81
2023/10/18 02:20:26;;;;;;;40.53;20.43;;;;;;;4.29;72.31;101076.59;124915;1101;104265;-81
2023/10/18 02:22:59;;;;;;;38.55;21.05;;;;;;;4.26;73.01;101080.69;124772;1102;104179;-80
2023/10/18 02:25:42;;;;;;;43.10;21.83;;;;;;;4.21;72.72;101085.56;124779;1102;104235;-81
2023/10/18 02:28:24;;;;;;;43.43;21.20;;;;;;;4.16;72.43;101080.82;125905;1101;104169;-81
2023/10/18 02:30:57;;;;;;;39.05;21.10;;;;;;;4.15;72.57;101085.13;124869;1102;104169;-80
2023/10/18 02:33:36;;;;;;;40.17;20.55;;;;;;;4.14;72.45;101078.11;124701;1102;101888;-80
2023/10/18 02:36:11;;;;;;;38.80;22.07;;;;;;;4.14;73.29;101089.43;124900;1102;104262;-81
2023/10/18 02:38:42;;;;;;;36.67;19.93;;;;;;;4.12;72.65;101085.80;125285;1102;104170;-80
2023/10/18 02:41:19;;;;;;;37.30;19.93;;;;;;;4.13;73.10;101091.92;125256;1102;102020;-81
2023/10/18 02:43:51;;;;;;;38.77;21.40;;;;;;;4.12;73.13;101087.50;124832;1102;104098;-80
2023/10/18 02:46:24;;;;;;;41.27;21.27;;;;;;;4.16;72.99;101083.42;124919;1102;102189;-79
2023/10/18 02:48:56;;;;;;;48.50;22.23;;;;;;;4.19;72.99;101083.64;125970;1101;101919;-80
2023/10/18 02:51:28;;;;;;;39.53;21.80;;;;;;;4.22;73.73;101082.14;124835;1102;101871;-80
2023/10/18 02:54:07;;;;;;;40.80;21.30;;;;;;;4.25;72.90;101078.88;124863;1101;102044;-80
2023/10/18 02:56:39;;;;;;;38.93;20.77;;;;;;;4.28;73.42;101079.09;124909;1102;104234;-80
2023/10/18 02:59:13;;;;;;;38.93;21.50;;;;;;;4.29;73.03;101079.20;125075;1102;101833;-81
2023/10/18 03:01:44;;;;;;;;;;;;;;;4.30;73.99;101074.89;126110;1101;104255;-80
2023/10/18 03:04:16;;;;;;;37.67;20.07;;;;;;;4.29;74.18;101068.80;126062;1102;104105;-81
2023/10/18 03:06:47;;;;;;;40.87;22.33;;;;;;;4.31;73.79;101071.51;125103;1102;101810;-80
2023/10/18 03:09:27;;;;;;;42.10;21.40;;;;;;;4.32;74.01;101061.22;126055;1101;104198;-81
2023/10/18 03:11:59;;;;;;;38.03;21.33;;;;;;;4.34;73.37;101055.25;125009;1102;104274;-80
2023/10/18 03:14:39;;;;;;;37.07;21.03;;;;;;;4.35;73.29;101051.83;124780;1102;102025;-80
2023/10/18 03:17:18;;;;;;;41.67;21.67;;;;;;;4.35;74.17;101050.16;124818;1102;101896;-79
2023/10/18 03:19:50;;;;;;;43.60;23.13;;;;;;;4.32;73.73;101050.83;126014;1101;101769;-80
2023/10/18 03:22:23;;;;;;;42.03;22.30;;;;;;;4.32;73.76;101040.44;124909;1102;104201;-80
2023/10/18 03:24:55;;;;;;;41.27;21.63;;;;;;;4.31;73.81;101037.73;125051;1102;104220;-80
2023/10/18 03:27:29;;;;;;;40.70;21.03;;;;;;;4.30;73.49;101038.52;125063;1102;104175;-80
2023/10/18 03:30:12;;;;;;;41.90;21.63;;;;;;;4.30;74.04;101035.92;124887;1102;104274;-80
2023/10/18 03:32:43;;;;;;;37.63;21.20;;;;;;;4.30;74.03;101033.32;124877;1102;104191;-80
2023/10/18 03:35:14;;;;;;;39.93;20.50;;;;;;;4.29;74.55;101037.63;124955;1102;104317;-80
2023/10/18 03:37:46;;;;;;;40.90;21.70;;;;;;;4.26;74.06;101041.72;124874;1102;103369;-80
2023/10/18 03:40:23;;;;;;;41.90;21.47;;;;;;;4.23;74.10;101041.51;124823;1102;104198;-80
2023/10/18 03:42:59;;;;;;;38.80;22.03;;;;;;;4.21;74.30;101038.80;124816;1102;102671;-80
2023/10/18 03:46:06;;;;;;;44.17;22.47;;;;;;;4.21;74.07;101041.40;126013;1101;101826;-79
2023/10/18 03:48:27;;;;;;;42.30;22.03;;;;;;;4.24;74.35;101039.02;125749;1102;101907;-80
2023/10/18 03:51:00;;;;;;;40.97;21.37;;;;;;;4.24;74.08;101032.89;124755;1102;102315;-79
2023/10/18 03:53:32;;;;;;;40.78;22.95;;;;;;;4.24;74.35;101031.22;124826;1102;104172;-80
2023/10/18 03:56:04;;;;;;;46.97;21.77;;;;;;;4.23;74.17;101031.11;124778;1102;104264;-81
2023/10/18 03:58:38;;;;;;;44.77;21.33;;;;;;;4.18;74.33;101032.50;124761;1102;104210;-80
2023/10/18 04:01:12;;;;;;;44.65;22.70;;;;;;;4.14;74.18;101027.09;124902;1102;101922;-79
2023/10/18 04:03:45;;;;;;;42.70;22.07;;;;;;;4.12;74.07;101035.55;125701;1101;102017;-81
2023/10/18 04:06:28;;;;;;;47.25;22.05;;;;;;;4.10;74.27;101035.45;124845;1102;102086;-79
2023/10/18 04:09:13;;;;;;;46.57;21.83;;;;;;;4.11;74.11;101028.55;124860;1102;102548;-79
2023/10/18 04:11:47;;;;;;;44.23;21.30;;;;;;;4.09;74.28;101027.55;124849;1102;102029;-79
2023/10/18 04:14:22;;;;;;;45.10;22.90;;;;;;;4.07;74.62;101026.55;125932;1102;101994;-79
2023/10/18 04:16:57;;;;;;;48.93;22.57;;;;;;;4.06;74.90;101016.95;124774;1102;104092;-79
2023/10/18 04:19:28;;;;;;;47.37;21.93;;;;;;;4.06;74.64;101022.14;124871;1102;104075;-80
2023/10/18 04:22:03;;;;;;;49.50;23.40;;;;;;;4.06;74.76;101024.73;124825;1102;104208;-77
2023/10/18 04:24:34;;;;;;;48.17;23.40;;;;;;;4.06;74.91;101030.83;124641;1102;104255;-77
2023/10/18 04:27:06;;;;;;;44.80;22.53;;;;;;;4.08;74.30;101025.73;124627;1102;104389;-77
2023/10/18 04:29:39;;;;;;;44.07;21.67;;;;;;;4.08;75.41;101033.53;124575;1102;102227;-78
2023/10/18 04:32:17;;;;;;;52.13;23.03;;;;;;;4.07;75.05;101029.15;124662;1102;104105;-78
2023/10/18 04:34:49;;;;;;;50.27;22.07;;;;;;;4.06;74.48;101028.23;124663;1101;104179;-78
2023/10/18 04:37:22;;;;;;;44.90;22.30;;;;;;;4.06;74.87;101032.53;124717;1102;103018;-77
2023/10/18 04:39:55;;;;;;;48.17;22.32;;;;;;;4.07;75.61;101029.15;124640;1102;104201;-77
2023/10/18 04:42:29;;;;;;;44.10;22.53;;;;;;;4.09;75.50;101032.75;124693;1102;101820;-77
2023/10/18 04:45:16;;;;;;;48.20;21.50;;;;;;;4.11;75.44;101032.07;125070;1102;101961;-78
2023/10/18 04:47:49;;;;;;;41.27;20.37;;;;;;;4.14;75.50;101036.55;124504;1102;104217;-79
2023/10/18 04:50:29;;;;;;;46.37;21.87;;;;;;;4.18;75.51;101035.98;124860;1102;104185;-79
2023/10/18 04:53:09;;;;;;;50.20;24.33;;;;;;;4.24;75.56;101033.81;124585;1102;101978;-77
2023/10/18 04:55:46;;;;;;;38.77;20.70;;;;;;;4.31;75.14;101038.62;124492;1102;102106;-79
2023/10/18 04:58:21;;;;;;;50.37;23.07;;;;;;;4.35;75.81;101034.56;124645;1103;104251;-82
2023/10/18 05:00:57;;;;;;;45.77;21.93;;;;;;;4.43;76.10;101040.30;124745;1101;102022;-84
2023/10/18 05:03:31;;;;;;;44.67;21.10;;;;;;;4.48;75.90;101042.39;124663;1102;102051;-78
2023/10/18 05:06:04;;;;;;;49.00;22.83;;;;;;;4.55;76.21;101043.73;124772;1102;104166;-80
2023/10/18 05:08:36;;;;;;;48.98;23.07;;;;;;;4.61;76.21;101046.75;124651;1102;102055;-78
2023/10/18 05:13:56;;;;;;;45.10;23.27;;;;;;;4.72;76.27;101036.16;125908;1101;104175;-81
2023/10/18 05:16:29;;;;;;;51.17;24.00;;;;;;;4.78;75.89;101041.78;125648;1101;105531;-81
2023/10/18 05:19:01;;;;;;;43.43;22.77;;;;;;;4.83;75.99;101051.70;124948;1102;101969;-80
2023/10/18 05:21:32;;;;;;;54.20;22.97;;;;;;;4.86;76.47;101038.91;124995;1101;102089;-81
2023/10/18 05:24:05;;;;;;;48.77;24.10;;;;;;;4.91;76.04;101047.02;124682;1101;102104;-79
2023/10/18 05:26:37;;;;;;;48.60;25.27;;;;;;;4.94;75.91;101046.30;124738;1102;102050;-85
2023/10/18 05:29:09;;;;;;;44.10;24.47;;;;;;;4.97;75.91;101042.23;126250;1101;101836;-83
2023/10/18 05:32:06;;;;;;;45.83;24.33;;;;;;;5.02;76.26;101060.75;125411;1102;104326;-82
2023/10/18 05:37:32;;;;;;;43.43;21.47;;;;;;;5.18;76.37;101060.95;125575;1101;101983;-84
2023/10/18 05:43:12;;;;;;;39.70;21.37;;;;;;;5.23;75.99;101066.45;124800;1102;101833;-83
2023/10/18 05:45:48;;;;;;;45.40;21.73;;;;;;;5.23;75.84;101056.05;125271;1102;104813;-82
2023/10/18 05:48:22;;;;;;;44.90;22.40;;;;;;;5.26;76.06;101060.56;125409;1102;101966;-79
2023/10/18 05:51:02;;;;;;;45.97;23.00;;;;;;;5.26;75.82;101066.66;124781;1102;104217;-81
2023/10/18 05:53:37;;;;;;;47.03;22.67;;;;;;;5.28;76.31;101064.16;126150;1102;101165;-87
2023/10/18 05:56:11;;;;;;;45.13;23.57;;;;;;;5.30;76.34;101066.08;125756;1102;101851;-85
2023/10/18 05:58:46;;;;;;;46.17;25.53;;;;;;;5.32;76.16;101059.27;125515;1101;102258;-83
2023/10/18 06:01:19;;;;;;;44.10;24.35;;;;;;;5.35;75.95;101058.57;124676;1102;104140;-78
2023/10/18 06:03:51;;;;;;;50.57;24.67;;;;;;;5.37;75.84;101052.64;125086;1102;102166;-82
2023/10/18 06:06:23;;;;;;;50.33;24.13;;;;;;;5.42;76.22;101057.27;125200;1102;102183;-87
2023/10/18 06:08:57;;;;;;;46.10;24.27;;;;;;;5.48;76.40;101055.95;126636;1101;101587;-81
2023/10/18 06:11:36;;;;;;;55.30;26.67;;;;;;;5.55;76.01;101045.14;124890;1102;104185;-84
2023/10/18 06:14:16;;;;;;;51.07;26.20;;;;;;;5.62;76.30;101042.94;125064;1102;104188;-81
2023/10/18 06:16:51;;;;;;;49.73;25.80;;;;;;;5.66;76.10;101045.84;126135;1101;102090;-80
2023/10/18 06:19:56;;;;;;;;;;;;;;;;;;;;;
2023/10/18 06:22:53;;;;;;;;;;;;;;;;;;;;;
2023/10/18 06:25:35;;;;;;;50.40;26.30;;;;;;;5.95;76.37;101046.77;125767;1102;104303;-84
2023/10/18 06:28:20;;;;;;;52.43;29.37;;;;;;;6.07;76.51;101047.58;125377;1102;101873;-84
2023/10/18 06:31:09;;;;;;;;;;;;;;;;;;;;;
2023/10/18 06:34:02;;;;;;;54.87;27.50;;;;;;;6.32;76.58;101035.17;125298;1102;104094;-81
2023/10/18 06:36:39;;;;;;;56.23;28.33;;;;;;;6.47;76.68;101037.00;125680;1102;102607;-80
2023/10/18 06:41:58;;;;;;;59.87;29.90;;;;;;;6.75;76.62;101033.45;125496;1102;104248;-85
2023/10/18 06:44:42;;;;;;;52.40;28.50;;;;;;;6.91;76.48;101024.81;126242;1101;101705;-82
2023/10/18 06:47:30;;;;;;;51.60;29.45;;;;;;;7.05;76.48;101023.02;125303;1102;104232;-80
2023/10/18 06:50:04;;;;;;;59.00;28.90;;;;;;;7.23;76.84;101017.05;125510;1102;102290;-79
2023/10/18 06:52:52;;;;;;;55.80;30.10;;;;;;;7.37;76.80;101008.33;126041;1101;102362;-83
2023/10/18 06:55:35;;;;;;;49.47;26.17;;;;;;;7.52;76.83;101014.38;125302;1102;101936;-75
2023/10/18 06:58:13;;;;;;;42.03;23.03;;;;;;;7.68;76.49;101010.02;124804;1102;104386;-79
2023/10/18 07:00:51;;;;;;;45.67;21.43;;;;;;;7.81;76.49;101006.39;125929;1101;104265;-76
2023/10/18 07:03:27;;;;;;;42.83;21.30;;;;;;;7.94;76.77;101006.22;124560;1102;104268;-77
2023/10/18 07:06:04;;;;;;;35.20;19.43;;;;;;;8.01;76.66;101004.83;124749;1101;104357;-85
2023/10/18 07:08:44;;;;;;;37.07;18.97;;;;;;;8.10;75.94;101006.25;125794;1101;104092;-85
2023/10/18 07:11:28;;;;;;;41.53;19.00;;;;;;;8.22;76.18;101000.76;126401;1102;102207;-84
2023/10/18 07:14:04;;;;;;;37.40;18.80;;;;;;;8.31;76.58;101002.97;125386;1102;102094;-79
2023/10/18 07:16:38;;;;;;;37.23;19.53;;;;;;;8.40;76.06;101005.19;125322;1102;102187;-77
2023/10/18 07:19:25;;;;;;;40.23;19.50;;;;;;;8.48;76.03;101006.52;124642;1102;102021;-79
2023/10/18 07:22:09;;;;;;;39.80;19.83;;;;;;;8.57;75.17;101006.07;125393;1102;104208;-85
2023/10/18 07:25:04;;;;;;;40.10;19.80;;;;;;;8.64;75.78;100998.62;125924;1102;101607;-79
2023/10/18 07:28:09;;;;;;;38.50;18.67;;;;;;;8.72;75.03;101004.25;125349;1102;102402;-80
2023/10/18 07:30:46;;;;;;;;;;;;;;;8.83;75.43;101001.30;124539;1102;104252;-80
2023/10/18 07:33:23;;;;;;;36.90;18.40;;;;;;;8.93;74.93;100993.98;124586;1102;102022;-77
2023/10/18 07:36:00;;;;;;;36.30;18.30;;;;;;;9.04;75.13;100988.36;124602;1102;101938;-78
2023/10/18 07:38:32;;;;;;;35.73;17.80;;;;;;;9.14;74.80;100983.66;124684;1102;102470;-78
2023/10/18 07:41:07;;;;;;;36.70;20.00;;;;;;;9.24;75.17;100982.41;124706;1102;102026;-79
2023/10/18 07:43:41;;;;;;;34.90;19.15;;;;;;;9.34;74.59;100984.64;125380;1102;104331;-80
2023/10/18 07:46:18;;;;;;;40.50;20.00;;;;;;;9.42;74.38;100989.36;125464;1102;104265;-82
2023/10/18 07:48:54;;;;;;;39.27;20.00;;;;;;;9.49;74.66;100988.80;124952;1101;104380;-80
2023/10/18 07:51:32;;;;;;;40.20;21.57;;;;;;;9.60;74.60;100990.24;124836;1102;102410;-83
2023/10/18 07:54:05;;;;;;;37.90;21.43;;;;;;;9.74;74.11;100988.27;124478;1102;102437;-77
2023/10/18 07:56:40;;;;;;;39.90;21.67;;;;;;;9.87;74.74;100979.25;125171;1101;104182;-79
2023/10/18 07:59:30;;;;;;;42.97;22.10;;;;;;;10.00;73.82;100975.45;125564;1101;102636;-79
2023/10/18 08:02:12;;;;;;;43.03;22.47;;;;;;;10.12;73.96;100964.64;125353;1102;101982;-79
2023/10/18 08:04:50;;;;;;;40.97;21.87;;;;;;;10.25;73.71;100973.13;124771;1102;104214;-79
2023/10/18 08:07:28;;;;;;;41.73;22.13;;;;;;;10.39;73.66;100955.41;125044;1102;104236;-79
2023/10/18 08:10:08;;;;;;;44.83;22.43;;;;;;;10.51;73.86;100954.14;124446;1102;103822;-78
2023/10/18 08:12:41;;;;;;;37.00;20.57;;;;;;;10.58;73.55;100953.55;124566;1101;104188;-78
2023/10/18 08:15:24;;;;;;;43.30;21.17;;;;;;;10.69;73.02;100951.39;124267;1102;104178;-76
2023/10/18 08:18:00;;;;;;;39.30;20.97;;;;;;;10.83;73.16;100951.97;124766;1102;104231;-77
2023/10/18 08:20:56;;;;;;;39.60;21.03;;;;;;;10.96;73.23;100944.66;125027;1102;101874;-78
2023/10/18 08:23:36;;;;;;;40.47;21.27;;;;;;;11.08;72.85;100936.41;124542;1102;101999;-76
2023/10/18 08:26:12;;;;;;;39.93;18.73;;;;;;;11.12;72.19;100934.79;124777;1102;104338;-82
2023/10/18 08:28:46;;;;;;;39.23;20.20;;;;;;;11.16;72.37;100920.95;125680;1102;104251;-80
2023/10/18 08:31:44;;;;;;;37.97;18.80;;;;;;;11.26;72.12;100920.47;126254;1101;101707;-78
2023/10/18 08:34:23;;;;;;;41.40;20.13;;;;;;;11.39;71.82;100918.33;125429;1102;104197;-79
2023/10/18 08:37:03;;;;;;;33.33;17.70;;;;;;;11.51;71.67;100916.17;126566;1101;102039;-83
2023/10/18 08:39:53;;;;;;;35.73;18.03;;;;;;;11.65;71.57;100921.96;125230;1100;104159;-78
2023/10/18 08:42:33;;;;;;;34.10;18.10;;;;;;;11.74;71.39;100916.17;125897;1102;101938;-82
2023/10/18 08:45:19;;;;;;;35.67;15.80;;;;;;;11.85;71.20;100915.71;125250;1102;104057;-80
2023/10/18 08:48:00;;;;;;;30.73;15.87;;;;;;;11.92;71.17;100892.27;125329;1102;104248;-78
2023/10/18 08:50:51;;;;;;;29.15;14.65;;;;;;;12.15;71.18;100907.17;125664;1102;104181;-79
2023/10/18 08:53:25;;;;;;;29.13;13.57;;;;;;;12.34;70.93;100902.56;125489;1102;104200;-81
2023/10/18 08:56:15;;;;;;;30.40;14.00;;;;;;;12.48;70.54;100897.78;125959;1101;101964;-80
2023/10/18 08:59:07;;;;;;;30.70;14.20;;;;;;;12.61;70.35;100894.73;125109;1102;101997;-79
2023/10/18 09:02:02;;;;;;;27.00;12.73;;;;;;;12.74;69.75;100891.66;124466;1103;112060;-78
2023/10/18 09:04:41;;;;;;;27.30;13.23;;;;;;;12.84;69.77;100884.97;125236;1101;101936;-82
2023/10/18 09:07:42;;;;;;;14.87;7.37;;;;;;;13.04;69.66;100882.98;125886;1101;102131;-80
2023/10/18 09:10:47;;;;;;;18.43;7.53;;;;;;;13.24;69.16;100878.30;124684;1102;102306;-83
2023/10/18 09:13:37;;;;;;;14.70;6.30;;;;;;;13.45;69.05;100878.11;124865;1102;104324;-80
2023/10/18 09:16:14;;;;;;;15.30;5.97;;;;;;;13.67;68.59;100876.11;124799;1102;104255;-83
2023/10/18 09:18:48;;;;;;;12.20;5.10;;;;;;;13.77;67.67;100864.95;125946;1101;102109;-81
2023/10/18 09:21:20;;;;;;;11.87;5.37;;;;;;;13.85;67.08;100867.81;124695;1102;101928;-79
2023/10/18 09:24:00;;;;;;;14.10;5.70;;;;;;;13.92;67.91;100859.23;124604;1102;104163;-79
2023/10/18 09:26:41;;;;;;;14.07;5.73;;;;;;;14.00;67.66;100857.69;125330;1102;104347;-79
2023/10/18 09:29:13;;;;;;;13.03;6.03;;;;;;;14.11;67.44;100850.06;124833;1102;104246;-83
2023/10/18 09:31:54;;;;;;;12.97;4.63;;;;;;;14.21;67.04;100843.31;124884;1102;102334;-80
2023/10/18 09:34:33;;;;;;;12.80;5.17;;;;;;;14.31;65.71;100847.95;125003;1102;102161;-80
2023/10/18 09:37:35;;;;;;;10.20;4.50;;;;;;;14.17;65.30;100839.67;125362;1102;104200;-77
2023/10/18 09:40:15;;;;;;;11.87;4.80;;;;;;;14.24;65.29;100839.84;124873;1102;102447;-76
2023/10/18 09:42:54;;;;;;;12.73;4.73;;;;;;;14.30;66.02;100832.96;126002;1102;109699;-78
2023/10/18 09:45:28;;;;;;;10.23;4.40;;;;;;;14.39;65.15;100832.32;125719;1101;104233;-77
2023/10/18 09:48:11;;;;;;;11.53;4.27;;;;;;;14.46;65.69;100822.80;124684;1102;102360;-76
2023/10/18 09:50:47;;;;;;;12.20;4.90;;;;;;;14.56;64.81;100816.90;125268;1102;102005;-80
2023/10/18 09:53:26;;;;;;;10.93;4.23;;;;;;;14.60;63.91;100821.45;124932;1102;101890;-79
2023/10/18 09:56:03;;;;;;;10.37;4.30;;;;;;;14.57;63.72;100818.70;126196;1101;101865;-75
2023/10/18 09:58:44;;;;;;;13.50;4.43;;;;;;;14.50;63.58;100812.34;125644;1102;104289;-83
2023/10/18 10:01:27;;;;;;;10.17;4.10;;;;;;;14.46;64.16;100812.23;125578;1102;102152;-82
2023/10/18 10:04:08;;;;;;;10.07;3.80;;;;;;;14.59;62.57;100802.89;125912;1101;104185;-78
2023/10/18 10:06:48;;;;;;;6.70;3.17;;;;;;;14.73;63.40;100801.49;126455;1100;104133;-81
2023/10/18 10:09:29;;;;;;;5.53;3.27;;;;;;;14.60;62.82;100791.45;126331;1100;104376;-82
2023/10/18 10:12:10;;;;;;;6.30;3.13;;;;;;;14.60;63.37;100791.45;126380;1100;102035;-82
2023/10/18 10:15:02;;;;;;;6.47;3.20;;;;;;;14.65;62.41;100784.58;127152;1101;101853;-84
2023/10/18 10:17:38;;;;;;;9.70;3.23;;;;;;;14.54;61.31;100777.25;125407;1102;102173;-78
2023/10/18 10:20:15;;;;;;;8.73;3.00;;;;;;;14.48;61.80;100777.10;125671;1101;104178;-77
2023/10/18 10:22:52;;;;;;;6.07;3.30;;;;;;;14.48;62.27;100777.10;124717;1102;104275;-79
2023/10/18 10:25:35;;;;;;;11.30;3.80;;;;;;;14.50;61.48;100770.10;124799;1101;104185;-77
2023/10/18 10:28:18;;;;;;;7.93;3.30;;;;;;;14.53;61.12;100774.58;125737;1102;104341;-76
2023/10/18 10:30:56;;;;;;;7.50;3.60;;;;;;;14.46;61.27;100773.55;125897;1101;104224;-77
2023/10/18 10:34:09;;;;;;;10.00;3.67;;;;;;;14.53;61.40;100764.02;125848;1100;104230;-78
2023/10/18 10:37:07;;;;;;;9.47;3.97;;;;;;;14.82;60.58;100747.95;126185;1101;104070;-78
2023/10/18 10:39:49;;;;;;;9.33;2.93;;;;;;;15.02;61.24;100744.03;125477;1101;101833;-81
2023/10/18 10:42:43;;;;;;;6.70;3.10;;;;;;;15.17;60.19;100743.44;125879;1101;101919;-85
2023/10/18 10:45:35;;;;;;;7.93;3.30;;;;;;;15.22;59.79;100743.53;124785;1102;104274;-82
2023/10/18 10:48:49;;;;;;;7.40;2.77;;;;;;;15.31;60.45;100741.08;125396;1102;104073;-82
2023/10/18 10:51:24;;;;;;;4.20;2.50;;;;;;;15.50;60.32;100738.81;124748;1102;101782;-76
2023/10/18 10:53:58;;;;;;;6.03;2.70;;;;;;;15.52;60.14;100740.62;125148;1102;101891;-78
2023/10/18 10:57:00;;;;;;;5.53;2.80;;;;;;;15.58;59.67;100734.55;124581;1102;104245;-78
2023/10/18 10:59:41;;;;;;;6.27;2.60;;;;;;;15.52;59.50;100726.49;125885;1102;101795;-83
2023/10/18 11:02:29;;;;;;;5.47;2.67;;;;;;;15.42;59.68;100728.95;127064;1101;102054;-82
2023/10/18 11:05:14;;;;;;;5.60;2.80;;;;;;;15.35;59.08;100723.52;125427;1102;104207;-79
2023/10/18 11:07:57;;;;;;;6.67;2.70;;;;;;;15.35;58.51;100718.23;126029;1101;101931;-79
2023/10/18 11:10:39;;;;;;;6.17;2.80;;;;;;;15.24;59.14;100711.00;125302;1102;104165;-79
2023/10/18 11:13:13;;;;;;;7.37;3.00;;;;;;;15.22;58.29;100709.17;125068;1101;101938;-78
2023/10/18 11:15:45;;;;;;;5.00;2.77;;;;;;;15.34;58.06;100704.13;124589;1102;104286;-77
2023/10/18 11:18:22;;;;;;;5.63;2.63;;;;;;;15.39;57.94;100709.52;124615;1101;104274;-78
2023/10/18 11:21:05;;;;;;;5.47;3.40;;;;;;;15.54;58.48;100703.63;125532;1102;104166;-77
2023/10/18 11:23:38;;;;;;;5.63;2.40;;;;;;;15.60;57.75;100701.98;125659;1101;101998;-81
2023/10/18 11:29:46;;;;;;;9.30;3.20;;;;;;;15.72;57.70;100701.33;125162;1102;104070;-76
2023/10/18 11:32:27;;;;;;;6.03;2.40;;;;;;;15.81;57.21;100697.97;124890;1102;104099;-78
2023/10/18 11:35:09;;;;;;;5.63;2.30;;;;;;;15.79;56.99;100697.94;125914;1101;101785;-78
2023/10/18 11:37:48;;;;;;;5.50;2.50;;;;;;;15.78;57.32;100693.53;124467;1102;102392;-78
2023/10/18 11:40:40;;;;;;;4.47;2.13;;;;;;;15.84;56.72;100690.08;125807;1101;102280;-77
2023/10/18 11:43:55;;;;;;;6.47;2.13;;;;;;;15.91;56.91;100686.69;125375;1100;104197;-80
2023/10/18 11:46:46;;;;;;;2.60;1.93;;;;;;;15.88;56.29;100675.14;124599;1102;104344;-76
2023/10/18 11:52:48;;;;;;;3.13;1.97;;;;;;;15.76;56.08;100671.39;124721;1102;104242;-76
2023/10/18 11:55:27;;;;;;;6.67;2.70;;;;;;;15.65;56.13;100670.33;124506;1102;102121;-73
2023/10/18 11:58:17;;;;;;;4.97;2.57;;;;;;;15.57;56.17;100666.66;124472;1102;104207;-73
2023/10/18 12:01:18;;;;;;;8.27;2.57;;;;;;;15.57;55.49;100662.25;125887;1102;101878;-78
2023/10/18 12:04:37;;;;;;;4.10;2.25;;;;;;;15.66;54.73;100658.89;125892;1101;101759;-80
2023/10/18 12:07:14;;;;;;;5.60;2.40;;;;;;;15.74;55.12;100657.27;124639;1102;102366;-79
2023/10/18 12:09:51;;;;;;;9.33;2.70;;;;;;;15.91;54.81;100656.67;126243;1102;104172;-82
2023/10/18 12:12:35;;;;;;;6.17;2.67;;;;;;;15.99;55.23;100653.29;125765;1102;101919;-79
2023/10/18 12:15:13;;;;;;;5.43;2.77;;;;;;;15.99;54.54;100653.29;124865;1102;102033;-79
2023/10/18 12:17:49;;;;;;;7.60;3.27;;;;;;;15.92;54.82;100659.34;126021;1102;101641;-84